Time;durP1;ratioP1;P1;durP2;ratioP2;P2;SDS_P1;SDS_P2;PMS_P1;PMS_P2;Temp;Humidity;BMP_temperature;BMP_pressure;BME280_temperature;BME280_humidity;BME280_pressure;Samples;Min_cycle;Max_cycle;Signal;HPM_P1;HPM_P2
2023/08/20 00:02:11;;;;;;;0.00;0.00;;;21.00;99.90;;;;;;5115014;28;20011;-72
2023/08/20 00:04:37;;;;;;;0.00;0.00;;;21.30;99.90;;;;;;5115924;28;20039;-71
2023/08/20 00:07:03;;;;;;;7.93;0.35;;;21.40;99.90;;;;;;5115889;28;20512;-71
2023/08/20 00:09:30;;;;;;;0.05;0.05;;;21.20;99.90;;;;;;5115941;27;20384;-76
2023/08/20 00:11:56;;;;;;;0.05;0.05;;;21.40;99.90;;;;;;5114749;28;20061;-72
2023/08/20 00:14:53;;;;;;;0.35;0.20;;;21.40;99.90;;;;;;5095846;28;20486;-84
2023/08/20 00:17:19;;;;;;;0.10;0.10;;;20.90;99.90;;;;;;5087539;28;20503;-83
2023/08/20 00:19:45;;;;;;;0.00;0.00;;;20.70;99.90;;;;;;5106750;28;20372;-83
2023/08/20 00:22:11;;;;;;;0.25;0.25;;;20.90;99.90;;;;;;5105121;28;20027;-83
2023/08/20 00:24:37;;;;;;;0.00;0.00;;;21.20;99.90;;;;;;5111737;28;20490;-83
2023/08/20 00:27:03;;;;;;;0.00;0.00;;;21.20;99.90;;;;;;5103755;28;20018;-82
2023/08/20 00:29:29;;;;;;;0.00;0.00;;;21.40;99.90;;;;;;5114102;28;20395;-80
2023/08/20 00:31:54;;;;;;;2.55;0.47;;;21.70;99.90;;;;;;5100334;28;20023;-79
2023/08/20 00:34:20;;;;;;;0.00;0.00;;;21.50;99.90;;;;;;5116236;28;20030;-84
2023/08/20 00:36:46;;;;;;;0.00;0.00;;;21.40;99.90;;;;;;5114469;28;20368;-82
2023/08/20 00:39:12;;;;;;;0.00;0.00;;;21.70;99.90;;;;;;5101326;28;20069;-82
2023/08/20 00:41:38;;;;;;;0.00;0.00;;;21.70;99.90;;;;;;5110262;28;20019;-83
2023/08/20 00:44:03;;;;;;;2.50;1.65;;;21.80;99.90;;;;;;5115778;28;20019;-82
2023/08/20 00:46:30;;;;;;;0.00;0.00;;;21.80;99.90;;;;;;5087797;28;20029;-83
2023/08/20 00:48:56;;;;;;;0.00;0.00;;;22.00;99.90;;;;;;5098816;28;20511;-84
2023/08/20 00:51:23;;;;;;;0.00;0.00;;;21.80;99.90;;;;;;5113904;28;20063;-84
2023/08/20 00:53:49;;;;;;;0.00;0.00;;;21.70;99.90;;;;;;5113235;28;20023;-82
2023/08/20 00:56:16;;;;;;;0.00;0.00;;;21.80;99.90;;;;;;5110018;28;20460;-77
2023/08/20 00:58:42;;;;;;;0.00;0.00;;;21.90;99.90;;;;;;5113645;28;20126;-78
2023/08/20 01:01:08;;;;;;;0.00;0.00;;;22.00;99.90;;;;;;5100827;28;20028;-75
2023/08/20 01:03:34;;;;;;;0.00;0.00;;;22.10;99.90;;;;;;5113586;28;20404;-82
2023/08/20 01:06:23;;;;;;;0.00;0.00;;;21.90;99.90;;;;;;5115002;27;20359;-79
2023/08/20 01:09:00;;;;;;;0.00;0.00;;;21.80;99.90;;;;;;5114778;28;20455;-80
2023/08/20 01:11:33;;;;;;;0.00;0.00;;;21.90;99.90;;;;;;5109524;28;20057;-79
2023/08/20 01:14:01;;;;;;;0.00;0.00;;;21.80;99.90;;;;;;5087389;28;20099;-74
2023/08/20 01:16:26;;;;;;;0.00;0.00;;;21.70;99.90;;;;;;5088359;28;20036;-77
2023/08/20 01:18:54;;;;;;;0.13;0.13;;;21.60;99.90;;;;;;5085384;28;20080;-83
2023/08/20 01:21:42;;;;;;;0.00;0.00;;;21.50;99.90;;;;;;5087398;28;20409;-81
2023/08/20 01:24:09;;;;;;;0.00;0.00;;;21.30;99.90;;;;;;5107613;28;20431;-83
2023/08/20 01:26:58;;;;;;;0.00;0.00;;;21.10;99.90;;;;;;5113808;28;20028;-80
2023/08/20 01:29:25;;;;;;;0.00;0.00;;;21.40;99.90;;;;;;5113317;28;20036;-80
2023/08/20 01:31:53;;;;;;;0.10;0.10;;;21.40;99.90;;;;;;5114575;28;20075;-81
2023/08/20 01:34:18;;;;;;;0.00;0.00;;;21.30;99.90;;;;;;5096248;28;20106;-73
2023/08/20 01:36:44;;;;;;;0.38;0.38;;;21.30;99.90;;;;;;5114455;28;20059;-80
2023/08/20 01:39:10;;;;;;;0.00;0.00;;;21.20;99.90;;;;;;5115125;28;20418;-77
2023/08/20 01:41:36;;;;;;;0.00;0.00;;;21.20;99.90;;;;;;5114482;28;20055;-81
2023/08/20 01:44:02;;;;;;;0.00;0.00;;;21.00;99.90;;;;;;5113743;28;20107;-81
2023/08/20 01:46:28;;;;;;;0.00;0.00;;;21.10;99.90;;;;;;5113330;28;20123;-80
2023/08/20 01:48:54;;;;;;;0.20;0.20;;;20.90;99.90;;;;;;5101442;28;20118;-75
2023/08/20 01:51:19;;;;;;;0.00;0.00;;;20.90;99.90;;;;;;5114039;28;20024;-83
2023/08/20 01:53:45;;;;;;;0.00;0.00;;;20.70;99.90;;;;;;5114605;28;20030;-77
2023/08/20 01:56:12;;;;;;;0.00;0.00;;;20.80;99.90;;;;;;5113055;28;20395;-83
2023/08/20 01:58:39;;;;;;;0.25;0.25;;;20.70;99.90;;;;;;5113006;28;20020;-82
2023/08/20 02:01:05;;;;;;;0.10;0.10;;;20.60;99.90;;;;;;5095956;28;20051;-72
2023/08/20 02:03:31;;;;;;;0.00;0.00;;;20.70;99.90;;;;;;5113746;28;20498;-79
2023/08/20 02:05:57;;;;;;;0.10;0.10;;;20.80;99.90;;;;;;5111985;28;20023;-75
2023/08/20 02:08:23;;;;;;;0.00;0.00;;;20.70;99.90;;;;;;5112843;28;20024;-73
2023/08/20 02:10:49;;;;;;;0.20;0.20;;;20.60;99.90;;;;;;5112615;28;20107;-73
2023/08/20 02:13:14;;;;;;;0.00;0.00;;;20.40;99.90;;;;;;5114053;28;20535;-74
2023/08/20 02:15:40;;;;;;;0.25;0.25;;;20.60;99.90;;;;;;5112346;28;20035;-78
2023/08/20 02:18:06;;;;;;;0.00;0.00;;;20.50;99.90;;;;;;5112755;28;20375;-83
2023/08/20 02:20:32;;;;;;;0.00;0.00;;;20.60;99.90;;;;;;5112531;28;20533;-81
2023/08/20 02:22:57;;;;;;;0.00;0.00;;;20.60;99.90;;;;;;5098231;28;20034;-80
2023/08/20 02:25:24;;;;;;;0.00;0.00;;;20.50;99.90;;;;;;5095585;28;20038;-81
2023/08/20 02:27:54;;;;;;;0.10;0.10;;;20.50;99.90;;;;;;5113807;28;20008;-81
2023/08/20 02:30:20;;;;;;;0.28;0.28;;;20.50;99.90;;;;;;5113397;28;20046;-81
2023/08/20 02:32:46;;;;;;;0.00;0.00;;;20.20;99.90;;;;;;5113529;28;20023;-71
2023/08/20 02:35:14;;;;;;;0.00;0.00;;;19.90;99.90;;;;;;5112408;28;20026;-71
2023/08/20 02:37:41;;;;;;;0.05;0.05;;;20.10;99.90;;;;;;5113593;28;20040;-71
2023/08/20 02:40:08;;;;;;;0.00;0.00;;;20.30;99.90;;;;;;5113217;28;20016;-71
2023/08/20 02:42:34;;;;;;;0.00;0.00;;;20.10;99.90;;;;;;5107417;28;20418;-71
2023/08/20 02:45:00;;;;;;;0.00;0.00;;;20.10;99.90;;;;;;5104585;28;20459;-72
2023/08/20 02:47:26;;;;;;;0.00;0.00;;;20.10;99.90;;;;;;5094172;28;20036;-71
2023/08/20 02:49:51;;;;;;;0.00;0.00;;;20.10;99.90;;;;;;5102884;28;20028;-71
2023/08/20 02:52:17;;;;;;;0.00;0.00;;;20.30;99.90;;;;;;5105066;28;20027;-71
2023/08/20 02:54:43;;;;;;;0.00;0.00;;;20.20;99.90;;;;;;5108891;28;20114;-70
2023/08/20 02:57:09;;;;;;;0.00;0.00;;;19.90;99.90;;;;;;5109366;28;20029;-70
2023/08/20 02:59:35;;;;;;;4.50;4.20;;;19.90;99.90;;;;;;5111414;28;20444;-74
2023/08/20 03:02:01;;;;;;;0.00;0.00;;;20.10;99.90;;;;;;5092693;28;20008;-75
2023/08/20 03:04:28;;;;;;;0.03;0.03;;;20.10;99.90;;;;;;5083746;28;20032;-81
2023/08/20 03:06:54;;;;;;;0.00;0.00;;;19.70;99.90;;;;;;5083291;28;20032;-76
2023/08/20 03:09:20;;;;;;;0.17;0.17;;;19.60;99.90;;;;;;5107774;28;20039;-78
2023/08/20 03:11:46;;;;;;;0.00;0.00;;;19.40;99.90;;;;;;5108044;28;20043;-81
2023/08/20 03:14:12;;;;;;;0.00;0.00;;;19.50;99.90;;;;;;5111093;28;20040;-81
2023/08/20 03:16:37;;;;;;;0.00;0.00;;;19.80;99.90;;;;;;5110172;28;20458;-73
2023/08/20 03:19:04;;;;;;;0.00;0.00;;;20.00;99.90;;;;;;5096779;28;20374;-80
2023/08/20 03:21:30;;;;;;;0.00;0.00;;;20.00;99.90;;;;;;5103309;28;20031;-74
2023/08/20 03:23:55;;;;;;;0.00;0.00;;;20.00;99.90;;;;;;5096227;28;20021;-75
2023/08/20 03:26:21;;;;;;;0.00;0.00;;;19.80;99.90;;;;;;5115841;28;20528;-81
2023/08/20 03:28:47;;;;;;;0.00;0.00;;;19.90;99.90;;;;;;5105883;28;20063;-83
2023/08/20 03:31:14;;;;;;;0.45;0.45;;;19.70;99.90;;;;;;5098362;28;20117;-82
2023/08/20 03:33:41;;;;;;;0.00;0.00;;;19.40;99.90;;;;;;5098238;28;20030;-78
2023/08/20 03:36:07;;;;;;;0.00;0.00;;;19.60;99.90;;;;;;5103540;28;20023;-82
2023/08/20 03:38:33;;;;;;;0.00;0.00;;;19.40;99.90;;;;;;5100816;28;20445;-72
2023/08/20 03:40:59;;;;;;;0.00;0.00;;;19.30;99.90;;;;;;5108969;28;20027;-75
2023/08/20 03:43:25;;;;;;;0.00;0.00;;;19.50;99.90;;;;;;5103742;28;20051;-77
2023/08/20 03:45:52;;;;;;;0.00;0.00;;;19.70;99.90;;;;;;5111847;28;20051;-73
2023/08/20 03:48:19;;;;;;;0.00;0.00;;;19.30;99.90;;;;;;5102315;28;20024;-82
2023/08/20 03:50:44;;;;;;;6.70;0.20;;;19.20;99.90;;;;;;5114564;27;20499;-72
2023/08/20 03:53:10;;;;;;;0.00;0.00;;;19.10;99.90;;;;;;5113312;28;20023;-72
2023/08/20 03:55:36;;;;;;;0.00;0.00;;;19.20;99.90;;;;;;5107849;28;20059;-82
2023/08/20 03:58:02;;;;;;;0.00;0.00;;;19.40;99.90;;;;;;5098451;28;20357;-75
2023/08/20 04:00:28;;;;;;;0.00;0.00;;;19.40;99.90;;;;;;5099059;28;20542;-73
2023/08/20 04:02:54;;;;;;;0.00;0.00;;;19.50;99.90;;;;;;5100083;28;20028;-81
2023/08/20 04:05:19;;;;;;;0.00;0.00;;;19.40;99.90;;;;;;5102447;28;20028;-76
2023/08/20 04:07:46;;;;;;;0.00;0.00;;;19.30;99.90;;;;;;5102684;28;20388;-81
2023/08/20 04:10:11;;;;;;;0.00;0.00;;;19.40;99.90;;;;;;5107900;27;20084;-74
2023/08/20 04:12:37;;;;;;;1.75;1.65;;;19.30;99.90;;;;;;5107097;28;20452;-82
2023/08/20 04:15:03;;;;;;;0.10;0.10;;;19.20;99.90;;;;;;5111306;28;20368;-75
2023/08/20 04:17:29;;;;;;;0.10;0.10;;;18.80;99.90;;;;;;5108860;28;20027;-79
2023/08/20 04:19:55;;;;;;;0.52;0.52;;;18.90;99.90;;;;;;5104765;28;20028;-83
2023/08/20 04:22:21;;;;;;;0.00;0.00;;;18.80;99.90;;;;;;5099884;28;20024;-81
2023/08/20 04:24:47;;;;;;;0.15;0.15;;;18.70;99.90;;;;;;5094505;28;20028;-80
2023/08/20 04:27:13;;;;;;;0.00;0.00;;;18.60;99.90;;;;;;5093633;28;20416;-82
2023/08/20 04:29:41;;;;;;;0.00;0.00;;;18.70;99.90;;;;;;5094020;28;20028;-82
2023/08/20 04:32:07;;;;;;;0.00;0.00;;;19.00;99.90;;;;;;5094079;28;20028;-73
2023/08/20 04:34:33;;;;;;;0.00;0.00;;;19.30;99.90;;;;;;5105633;28;20049;-81
2023/08/20 04:36:59;;;;;;;0.10;0.10;;;19.30;99.90;;;;;;5112522;28;20024;-82
2023/08/20 04:39:25;;;;;;;0.00;0.00;;;19.10;99.90;;;;;;5112720;28;20039;-78
2023/08/20 04:41:53;;;;;;;0.00;0.00;;;19.00;99.90;;;;;;5094393;28;20024;-72
2023/08/20 04:44:20;;;;;;;0.00;0.00;;;19.10;99.90;;;;;;5096396;28;20027;-75
2023/08/20 04:46:48;;;;;;;0.00;0.00;;;19.10;99.90;;;;;;5097831;28;20023;-81
2023/08/20 04:49:14;;;;;;;0.00;0.00;;;19.30;99.90;;;;;;5098829;28;20435;-75
2023/08/20 04:51:39;;;;;;;0.00;0.00;;;19.30;99.90;;;;;;5104198;28;20031;-82
2023/08/20 04:54:05;;;;;;;0.13;0.13;;;19.20;99.90;;;;;;5104223;28;20512;-78
2023/08/20 04:56:31;;;;;;;0.00;0.00;;;19.00;99.90;;;;;;5108744;28;20027;-82
2023/08/20 04:58:57;;;;;;;0.00;0.00;;;18.90;99.90;;;;;;5102014;28;20031;-82
2023/08/20 05:01:48;;;;;;;0.00;0.00;;;19.10;99.90;;;;;;5087794;28;20112;-79
2023/08/20 05:04:15;;;;;;;0.00;0.00;;;19.10;99.90;;;;;;5104821;28;20035;-83
2023/08/20 05:06:41;;;;;;;0.00;0.00;;;18.90;99.90;;;;;;5109711;28;20476;-80
2023/08/20 05:09:07;;;;;;;0.03;0.03;;;18.70;99.90;;;;;;5111141;28;20038;-75
2023/08/20 05:11:33;;;;;;;0.03;0.03;;;18.80;99.90;;;;;;5113684;28;20034;-82
2023/08/20 05:14:00;;;;;;;0.15;0.15;;;18.90;99.90;;;;;;5095301;28;20020;-79
2023/08/20 05:16:25;;;;;;;0.00;0.00;;;19.00;99.90;;;;;;5095613;28;20106;-78
2023/08/20 05:18:52;;;;;;;0.08;0.08;;;19.10;99.90;;;;;;5099672;28;20067;-80
2023/08/20 05:21:18;;;;;;;0.00;0.00;;;19.20;99.90;;;;;;5097788;28;20545;-79
2023/08/20 05:23:43;;;;;;;0.00;0.00;;;19.20;99.90;;;;;;5095037;28;20040;-81
2023/08/20 05:26:11;;;;;;;0.00;0.00;;;19.20;99.90;;;;;;5097046;28;20020;-74
2023/08/20 05:28:37;;;;;;;0.00;0.00;;;19.30;99.90;;;;;;5097372;28;20087;-82
2023/08/20 05:31:02;;;;;;;0.00;0.00;;;19.30;99.90;;;;;;5101982;28;20028;-81
2023/08/20 05:33:28;;;;;;;0.00;0.00;;;19.30;99.90;;;;;;5099877;28;20381;-81
2023/08/20 05:35:55;;;;;;;0.00;0.00;;;19.20;99.90;;;;;;5106085;28;20118;-71
2023/08/20 05:38:21;;;;;;;0.00;0.00;;;19.30;99.90;;;;;;5095419;28;21508;-72
2023/08/20 05:40:49;;;;;;;0.00;0.00;;;19.60;99.90;;;;;;5089853;28;20016;-77
2023/08/20 05:43:15;;;;;;;0.00;0.00;;;19.80;99.90;;;;;;5093547;28;20442;-75
2023/08/20 05:45:41;;;;;;;0.00;0.00;;;19.90;99.90;;;;;;5108294;28;20016;-76
2023/08/20 05:48:09;;;;;;;0.00;0.00;;;19.90;99.90;;;;;;5106856;28;20483;-71
2023/08/20 05:50:35;;;;;;;0.00;0.00;;;19.80;99.90;;;;;;5107846;28;20039;-74
2023/08/20 05:53:01;;;;;;;0.00;0.00;;;19.90;99.90;;;;;;5111926;28;20139;-75
2023/08/20 05:55:28;;;;;;;0.10;0.10;;;19.90;99.90;;;;;;5103076;28;20115;-77
2023/08/20 05:57:55;;;;;;;0.00;0.00;;;19.90;99.90;;;;;;5102553;28;20023;-75
2023/08/20 06:00:21;;;;;;;0.00;0.00;;;19.90;99.90;;;;;;5096514;28;20190;-77
2023/08/20 06:02:47;;;;;;;0.00;0.00;;;20.20;99.90;;;;;;5097614;28;20043;-77
2023/08/20 06:05:13;;;;;;;0.00;0.00;;;20.40;99.90;;;;;;5108505;28;20023;-76
2023/08/20 06:07:40;;;;;;;0.90;0.90;;;20.30;99.90;;;;;;5103616;28;20465;-77
2023/08/20 06:10:07;;;;;;;0.08;0.08;;;20.20;99.90;;;;;;5105134;28;20403;-78
2023/08/20 06:12:33;;;;;;;0.10;0.10;;;20.20;99.90;;;;;;5101882;28;20115;-76
2023/08/20 06:14:59;;;;;;;0.00;0.00;;;20.10;99.90;;;;;;5108924;28;20036;-78
2023/08/20 06:17:25;;;;;;;0.00;0.00;;;20.20;99.90;;;;;;5107818;28;20023;-76
2023/08/20 06:19:51;;;;;;;0.00;0.00;;;20.30;99.90;;;;;;5105428;28;20024;-78
2023/08/20 06:22:16;;;;;;;0.00;0.00;;;20.50;99.90;;;;;;5104483;28;20528;-73
2023/08/20 06:24:42;;;;;;;0.10;0.10;;;20.70;99.90;;;;;;5106812;28;20023;-77
2023/08/20 06:27:08;;;;;;;2.25;0.90;;;20.30;99.90;;;;;;5112011;28;20020;-75
2023/08/20 06:29:34;;;;;;;0.00;0.00;;;20.00;99.90;;;;;;5097026;28;20040;-77
2023/08/20 06:31:59;;;;;;;0.00;0.00;;;20.30;99.90;;;;;;5100263;28;20073;-77
2023/08/20 06:34:25;;;;;;;0.03;0.03;;;20.60;99.90;;;;;;5101086;28;20059;-78
2023/08/20 06:36:52;;;;;;;0.00;0.00;;;20.50;99.90;;;;;;5096068;28;20357;-77
2023/08/20 06:39:19;;;;;;;0.17;0.17;;;21.00;99.90;;;;;;5092664;28;20065;-77
2023/08/20 06:41:45;;;;;;;0.00;0.00;;;21.20;99.90;;;;;;5095035;28;20119;-77
2023/08/20 06:44:19;;;;;;;0.10;0.10;;;20.60;99.90;;;;;;5103932;28;20049;-76
2023/08/20 06:46:45;;;;;;;0.00;0.00;;;20.20;99.90;;;;;;5097429;28;20024;-77
2023/08/20 06:49:10;;;;;;;0.00;0.00;;;20.30;99.90;;;;;;5094819;28;20028;-76
2023/08/20 06:51:36;;;;;;;7.38;1.08;;;20.60;99.90;;;;;;5090153;28;20468;-76
2023/08/20 06:54:05;;;;;;;0.00;0.00;;;20.50;99.90;;;;;;5107521;28;20474;-77
2023/08/20 06:56:32;;;;;;;0.00;0.00;;;20.30;99.90;;;;;;5095448;28;20032;-77
2023/08/20 06:58:58;;;;;;;0.45;0.45;;;20.50;99.90;;;;;;5096732;28;20027;-77
2023/08/20 07:01:23;;;;;;;0.43;0.32;;;21.10;99.90;;;;;;5094071;28;20373;-76
2023/08/20 07:03:49;;;;;;;3.10;1.15;;;20.70;99.90;;;;;;5096145;28;20032;-76
2023/08/20 07:06:18;;;;;;;0.00;0.00;;;20.50;99.90;;;;;;5106808;28;20015;-77
2023/08/20 07:08:44;;;;;;;0.20;0.20;;;20.50;99.90;;;;;;5099093;28;20456;-75
2023/08/20 07:11:09;;;;;;;0.30;0.30;;;20.70;99.90;;;;;;5094706;28;20051;-74
2023/08/20 07:13:35;;;;;;;0.03;0.03;;;21.00;99.90;;;;;;5093339;28;20063;-77
2023/08/20 07:16:01;;;;;;;0.00;0.00;;;21.60;99.90;;;;;;5096977;28;20093;-74
2023/08/20 07:18:28;;;;;;;0.10;0.10;;;21.80;99.90;;;;;;5105481;28;20016;-76
2023/08/20 07:20:55;;;;;;;0.35;0.20;;;21.30;99.90;;;;;;5104502;28;20535;-77
2023/08/20 07:23:21;;;;;;;0.00;0.00;;;21.50;99.90;;;;;;5099879;28;20027;-74
2023/08/20 07:25:48;;;;;;;0.10;0.10;;;21.10;99.90;;;;;;5100780;28;20016;-77
2023/08/20 07:28:14;;;;;;;0.03;0.03;;;20.90;99.90;;;;;;5083964;28;20034;-77
2023/08/20 07:30:40;;;;;;;0.00;0.00;;;20.80;99.90;;;;;;5106442;28;20035;-76
2023/08/20 07:33:07;;;;;;;1.52;1.13;;;20.90;99.90;;;;;;5103138;28;20031;-75
2023/08/20 07:35:33;;;;;;;0.00;0.00;;;20.80;99.90;;;;;;5103062;28;20028;-75
2023/08/20 07:37:59;;;;;;;2.72;0.32;;;21.00;99.90;;;;;;5097274;28;20023;-74
2023/08/20 07:40:25;;;;;;;0.63;0.47;;;21.40;99.90;;;;;;5089919;28;20065;-77
2023/08/20 07:42:50;;;;;;;0.00;0.00;;;21.50;99.90;;;;;;5086216;28;20074;-76
2023/08/20 07:45:16;;;;;;;0.10;0.10;;;21.90;99.90;;;;;;5096723;28;20042;-76
2023/08/20 07:47:42;;;;;;;0.00;0.00;;;22.00;99.90;;;;;;5101603;28;20036;-76
2023/08/20 07:50:08;;;;;;;0.20;0.20;;;22.20;99.90;;;;;;5093762;28;20065;-77
2023/08/20 07:52:34;;;;;;;0.00;0.00;;;22.10;99.90;;;;;;5094863;28;20095;-77
2023/08/20 07:55:00;;;;;;;0.00;0.00;;;22.10;99.90;;;;;;5092366;28;20396;-76
2023/08/20 07:57:26;;;;;;;0.00;0.00;;;21.80;99.90;;;;;;5100013;28;20028;-78
2023/08/20 07:59:52;;;;;;;0.00;0.00;;;22.20;99.90;;;;;;5100434;28;20019;-77
2023/08/20 08:02:18;;;;;;;0.00;0.00;;;22.30;99.90;;;;;;5092946;28;20024;-77
2023/08/20 08:04:44;;;;;;;1.55;0.63;;;22.10;99.90;;;;;;5098816;28;20028;-77
2023/08/20 08:07:11;;;;;;;0.10;0.10;;;22.40;99.90;;;;;;5095304;28;20035;-77
2023/08/20 08:09:37;;;;;;;0.00;0.00;;;22.10;99.90;;;;;;5103972;28;20046;-76
2023/08/20 08:12:04;;;;;;;0.80;0.57;;;22.50;99.90;;;;;;5100732;28;20019;-77
2023/08/20 08:14:30;;;;;;;2.53;1.77;;;22.40;99.90;;;;;;5094821;28;20487;-76
2023/08/20 08:16:56;;;;;;;0.10;0.10;;;22.40;99.90;;;;;;5097855;28;20028;-76
2023/08/20 08:19:22;;;;;;;0.00;0.00;;;22.50;99.90;;;;;;5095063;28;20061;-77
2023/08/20 08:21:48;;;;;;;1.45;0.32;;;22.50;99.90;;;;;;5104869;28;20050;-77
2023/08/20 08:24:14;;;;;;;0.30;0.30;;;22.80;99.90;;;;;;5114998;28;20035;-77
2023/08/20 08:26:41;;;;;;;0.00;0.00;;;22.90;99.90;;;;;;5115024;28;20019;-77
2023/08/20 08:29:08;;;;;;;3.65;0.52;;;23.00;99.90;;;;;;5112158;28;20036;-77
2023/08/20 08:31:34;;;;;;;0.15;0.10;;;23.60;99.90;;;;;;5112749;28;20099;-77
2023/08/20 08:34:01;;;;;;;0.70;0.35;;;23.90;99.90;;;;;;5106010;28;20765;-77
2023/08/20 08:36:27;;;;;;;0.00;0.00;;;23.20;99.90;;;;;;5111038;28;20347;-77
2023/08/20 08:38:53;;;;;;;0.00;0.00;;;23.50;99.90;;;;;;5101506;28;20028;-77
2023/08/20 08:41:23;;;;;;;0.22;0.22;;;23.50;99.90;;;;;;5108602;28;20033;-77
2023/08/20 08:43:49;;;;;;;0.00;0.00;;;23.50;99.90;;;;;;5089709;28;20038;-77
2023/08/20 08:46:15;;;;;;;0.00;0.00;;;24.10;99.90;;;;;;5114820;28;20408;-77
2023/08/20 08:48:44;;;;;;;0.00;0.00;;;24.50;99.90;;;;;;5102864;28;20032;-77
2023/08/20 08:51:11;;;;;;;1.08;0.75;;;24.10;99.90;;;;;;5072991;28;20029;-71
2023/08/20 08:53:37;;;;;;;0.32;0.32;;;23.70;99.90;;;;;;5108079;28;20019;-71
2023/08/20 08:56:05;;;;;;;0.00;0.00;;;23.60;99.90;;;;;;5107976;28;20028;-72
2023/08/20 08:58:32;;;;;;;0.00;0.00;;;23.80;99.90;;;;;;5100020;28;20027;-72
2023/08/20 09:00:59;;;;;;;0.00;0.00;;;24.00;99.90;;;;;;5096290;28;20103;-72
2023/08/20 09:03:24;;;;;;;0.00;0.00;;;23.90;99.90;;;;;;5094224;28;20036;-71
2023/08/20 09:06:03;;;;;;;0.30;0.20;;;24.10;99.90;;;;;;5094279;28;20020;-73
2023/08/20 09:08:32;;;;;;;0.00;0.00;;;24.00;99.90;;;;;;5091887;28;20044;-72
2023/08/20 09:11:01;;;;;;;0.10;0.10;;;24.60;99.90;;;;;;5093387;28;20046;-74
2023/08/20 09:13:38;;;;;;;0.00;0.00;;;24.90;99.90;;;;;;5094465;28;20024;-72
2023/08/20 09:16:05;;;;;;;0.00;0.00;;;25.10;99.90;;;;;;5094085;28;20052;-78
2023/08/20 09:18:32;;;;;;;0.20;0.20;;;25.20;99.90;;;;;;5093196;28;20016;-73
2023/08/20 09:20:59;;;;;;;0.00;0.00;;;25.00;99.90;;;;;;5093954;28;20039;-79
2023/08/20 09:23:29;;;;;;;0.10;0.10;;;25.10;99.90;;;;;;5103448;28;20053;-75
2023/08/20 09:25:55;;;;;;;1.35;0.47;;;25.20;99.90;;;;;;5114806;28;20384;-74
2023/08/20 09:28:21;;;;;;;0.00;0.00;;;25.20;99.90;;;;;;5114724;28;20027;-73
2023/08/20 09:31:01;;;;;;;0.00;0.00;;;24.60;99.90;;;;;;5113324;28;20114;-72
2023/08/20 09:33:28;;;;;;;0.00;0.00;;;24.90;99.90;;;;;;5106669;28;20032;-73
2023/08/20 09:35:54;;;;;;;0.00;0.00;;;25.20;99.90;;;;;;5090357;28;20040;-72
2023/08/20 09:38:21;;;;;;;0.00;0.00;;;25.40;99.90;;;;;;5091758;28;20012;-72
2023/08/20 09:40:49;;;;;;;5.68;1.27;;;25.40;99.90;;;;;;5093849;28;20099;-72
2023/08/20 09:43:16;;;;;;;0.20;0.20;;;25.50;99.90;;;;;;5093929;28;20039;-72
2023/08/20 09:45:43;;;;;;;0.00;0.00;;;25.00;99.90;;;;;;5094123;28;20066;-73
2023/08/20 09:48:10;;;;;;;1.02;0.57;;;24.80;99.90;;;;;;5093624;28;20457;-72
2023/08/20 09:50:37;;;;;;;0.28;0.28;;;25.10;99.90;;;;;;5093979;28;20039;-72
2023/08/20 09:53:27;;;;;;;0.00;0.00;;;25.30;99.90;;;;;;5093940;28;20035;-72
2023/08/20 09:56:00;;;;;;;0.73;0.22;;;25.50;99.90;;;;;;5083055;28;20043;-72
2023/08/20 09:58:26;;;;;;;0.38;0.10;;;25.70;99.90;;;;;;5093601;28;20020;-72
2023/08/20 10:00:52;;;;;;;0.28;0.28;;;25.70;99.90;;;;;;5093488;28;20024;-72
2023/08/20 10:03:19;;;;;;;0.20;0.20;;;25.80;99.90;;;;;;5091639;28;20024;-72
2023/08/20 10:05:48;;;;;;;0.05;0.05;;;26.20;99.30;;;;;;5093371;28;20103;-72
2023/08/20 10:08:15;;;;;;;0.82;0.82;;;26.80;99.60;;;;;;5081474;28;20419;-72
2023/08/20 10:10:41;;;;;;;1.35;0.50;;;27.20;97.40;;;;;;5092819;28;20035;-73
2023/08/20 10:13:07;;;;;;;0.68;0.38;;;27.10;97.70;;;;;;5093421;28;20562;-72
2023/08/20 10:15:36;;;;;;;0.10;0.10;;;27.10;96.60;;;;;;5081725;28;20016;-72
2023/08/20 10:18:02;;;;;;;0.00;0.00;;;26.40;97.50;;;;;;5083068;28;20012;-72
2023/08/20 10:20:32;;;;;;;0.20;0.17;;;26.10;96.80;;;;;;5092082;28;20502;-72
2023/08/20 10:23:02;;;;;;;1.65;0.85;;;26.60;98.10;;;;;;5097946;28;20020;-72
2023/08/20 10:25:29;;;;;;;0.00;0.00;;;26.40;96.60;;;;;;5113302;28;20487;-72
2023/08/20 10:28:13;;;;;;;0.55;0.55;;;26.90;95.70;;;;;;5113640;28;20035;-72
2023/08/20 10:30:59;;;;;;;0.13;0.13;;;26.50;96.00;;;;;;5112406;28;20051;-72
2023/08/20 10:33:25;;;;;;;0.35;0.10;;;26.60;96.40;;;;;;5113134;28;20043;-72
2023/08/20 10:35:53;;;;;;;0.22;0.22;;;26.50;95.30;;;;;;5113485;28;20024;-72
2023/08/20 10:38:18;;;;;;;0.30;0.30;;;26.50;95.10;;;;;;5112318;28;20034;-72
2023/08/20 10:40:58;;;;;;;0.00;0.00;;;26.90;97.10;;;;;;5112029;28;20571;-72
2023/08/20 10:43:35;;;;;;;0.00;0.00;;;27.60;95.00;;;;;;5113437;28;20084;-72
2023/08/20 10:46:08;;;;;;;0.00;0.00;;;27.70;94.60;;;;;;5113166;28;20027;-72
2023/08/20 10:48:36;;;;;;;0.20;0.20;;;28.30;94.30;;;;;;5113227;28;20016;-72
2023/08/20 10:51:12;;;;;;;0.43;0.20;;;28.20;95.00;;;;;;5113274;28;20051;-72
2023/08/20 10:53:39;;;;;;;0.00;0.00;;;28.30;94.60;;;;;;5113214;28;20016;-72
2023/08/20 10:56:10;;;;;;;1.02;0.65;;;28.90;94.10;;;;;;5113145;28;20034;-72
2023/08/20 10:58:40;;;;;;;0.00;0.00;;;28.70;93.70;;;;;;5113280;28;20011;-72
2023/08/20 11:01:19;;;;;;;0.50;0.50;;;28.80;93.50;;;;;;5112765;28;20027;-72
2023/08/20 11:03:46;;;;;;;0.25;0.22;;;29.30;93.40;;;;;;5112756;28;20111;-72
2023/08/20 11:06:13;;;;;;;0.10;0.10;;;29.20;92.30;;;;;;5113210;28;20023;-72
2023/08/20 11:08:40;;;;;;;0.00;0.00;;;28.20;93.00;;;;;;5113203;28;20398;-72
2023/08/20 11:11:06;;;;;;;5.82;1.08;;;28.30;94.20;;;;;;5113045;28;20027;-72
2023/08/20 11:13:33;;;;;;;0.00;0.00;;;28.60;94.50;;;;;;5112964;28;20111;-72
2023/08/20 11:15:59;;;;;;;0.00;0.00;;;29.20;93.30;;;;;;5112822;28;20068;-72
2023/08/20 11:18:25;;;;;;;0.00;0.00;;;28.90;93.40;;;;;;5113119;28;20036;-72
2023/08/20 11:20:51;;;;;;;0.00;0.00;;;29.10;93.20;;;;;;5110315;28;20065;-72
2023/08/20 11:23:17;;;;;;;1.85;1.55;;;28.50;93.70;;;;;;5098802;28;20046;-72
2023/08/20 11:25:43;;;;;;;0.00;0.00;;;29.00;93.80;;;;;;5112931;28;20032;-72
2023/08/20 11:28:09;;;;;;;0.00;0.00;;;29.20;93.10;;;;;;5112508;28;20059;-73
2023/08/20 11:30:35;;;;;;;0.47;0.08;;;28.90;93.20;;;;;;5112695;28;20063;-73
2023/08/20 11:33:02;;;;;;;0.00;0.00;;;29.60;93.00;;;;;;5112285;28;20027;-72
2023/08/20 11:35:28;;;;;;;1.30;0.45;;;29.30;92.80;;;;;;5111348;28;20036;-72
2023/08/20 11:37:54;;;;;;;0.00;0.00;;;30.10;92.10;;;;;;5114185;28;20031;-76
2023/08/20 11:40:21;;;;;;;0.98;0.20;;;29.60;92.40;;;;;;5116990;28;20065;-75
2023/08/20 11:42:48;;;;;;;0.43;0.43;;;29.80;93.20;;;;;;5116620;28;20047;-72
2023/08/20 11:45:13;;;;;;;0.00;0.00;;;29.20;92.10;;;;;;5116443;28;20038;-72
2023/08/20 11:47:40;;;;;;;2.72;0.55;;;29.10;93.40;;;;;;5113573;28;20028;-72
2023/08/20 11:50:07;;;;;;;0.00;0.00;;;29.30;92.50;;;;;;5114563;28;20122;-75
2023/08/20 11:52:33;;;;;;;0.00;0.00;;;29.40;93.00;;;;;;5116482;28;20027;-72
2023/08/20 11:55:03;;;;;;;0.10;0.10;;;29.90;93.20;;;;;;5116392;28;20077;-72
2023/08/20 11:57:30;;;;;;;1.75;0.57;;;29.90;91.70;;;;;;5116527;28;20030;-72
2023/08/20 11:59:59;;;;;;;0.90;0.20;;;30.10;90.40;;;;;;5107962;28;20024;-72
2023/08/20 12:02:27;;;;;;;0.10;0.10;;;29.90;90.70;;;;;;5094800;28;20043;-72
2023/08/20 12:04:56;;;;;;;0.00;0.00;;;30.00;90.70;;;;;;5094401;28;20035;-74
2023/08/20 12:07:28;;;;;;;0.00;0.00;;;30.10;90.90;;;;;;5085517;28;20476;-73
2023/08/20 12:09:55;;;;;;;0.00;0.00;;;30.60;90.70;;;;;;5095214;28;20032;-73
2023/08/20 12:12:21;;;;;;;10.77;0.60;;;31.70;90.20;;;;;;5095348;28;20032;-73
2023/08/20 12:14:48;;;;;;;0.00;0.00;;;31.90;90.70;;;;;;5095212;28;20357;-72
2023/08/20 12:17:18;;;;;;;0.75;0.20;;;32.50;88.60;;;;;;5093647;28;20024;-72
2023/08/20 12:19:45;;;;;;;0.05;0.00;;;31.60;89.50;;;;;;5092940;28;20024;-72
2023/08/20 12:22:12;;;;;;;0.00;0.00;;;31.60;89.60;;;;;;5093950;28;20089;-73
2023/08/20 12:24:38;;;;;;;1.85;0.73;;;31.10;90.30;;;;;;5095094;28;20032;-72
2023/08/20 12:27:04;;;;;;;0.15;0.10;;;30.50;90.30;;;;;;5094083;28;20553;-76
2023/08/20 12:29:30;;;;;;;0.00;0.00;;;30.50;90.40;;;;;;5095117;28;20115;-77
2023/08/20 12:31:56;;;;;;;0.00;0.00;;;31.30;90.60;;;;;;5095453;28;20032;-72
2023/08/20 12:34:21;;;;;;;0.22;0.22;;;31.70;89.70;;;;;;5095450;28;20161;-73
2023/08/20 12:36:48;;;;;;;1.27;1.17;;;32.30;87.20;;;;;;5073850;28;20025;-72
2023/08/20 12:39:14;;;;;;;0.00;0.00;;;32.20;86.70;;;;;;5090810;28;20511;-72
2023/08/20 12:41:40;;;;;;;0.70;0.13;;;31.90;87.50;;;;;;5094735;28;20035;-72
2023/08/20 12:44:06;;;;;;;1.75;0.52;;;31.70;87.90;;;;;;5095267;28;20044;-72
2023/08/20 12:46:31;;;;;;;0.00;0.00;;;31.90;89.40;;;;;;5094691;28;20024;-73
2023/08/20 12:48:57;;;;;;;6.57;1.35;;;31.80;90.00;;;;;;5094476;28;20028;-75